Sault Sainte Marie, MI

12:12 AM EST on January 31, 2015 (GMT -0500)
Chippewa County International | Change Station
CLOSE
Current Station
Airport
Location: Chippewa,
Elevation: 801 ft
Nearby Weather Stations

Elev 801 ft 46.25 °N, 84.48 °W | Updated 17 minutes ago

Overcast
Overcast
10 °F
Feels Like 4 °F
N
4
Wind Variable Wind from SSW

Today
High -- | Low -- °F
--% Chance of Precip.
Yesterday
High -- | Low -- °F
Precip. -- in
8:02 AM 5:39 PM
Waxing Gibbous, 87% visible
Pressure 30.27 in
Visibility 10.0 miles
Clouds Scattered Clouds 3700 ft
Mostly Cloudy 4600 ft
Overcast 5000 ft
Windchill 4 °F
Dew Point 9 °F
Humidity 92%
Rainfall 0.00 in
Snow Depth Not available.
UV 0 out of 12
Pollen .10 out of 12
Air Quality Not available.
Flu Activity Not available.
METAR KCIU 310455Z AUTO 21003KT 10SM SCT037 BKN046 OVC050 M12/M13 A3027 RMK AO1

More Conditions Fewer Conditions

Pressure 30.27 in
Visibility 10.0 miles
Clouds Scattered Clouds 3700 ft
Mostly Cloudy 4600 ft
Overcast 5000 ft
Windchill 4 °F
Dew Point 9 °F
Humidity 92%
Rainfall 0.00 in
Snow Depth Not available.
UV 0 out of 12
Pollen .10 out of 12
Air Quality Not available.
Flu Activity Not available.
METAR KCIU 310455Z AUTO 21003KT 10SM SCT037 BKN046 OVC050 M12/M13 A3027 RMK AO1

More Conditions Fewer Conditions

Nowcast | as of 12:00 am EST on January 31, 2015

At 1 am...periods of snow. Temperature 3 above. Light winds. At 3 am...periods of snow. Temperature 4 above. Light winds. At 5 am...periods of snow. Temperature 6 above. Light winds. At 7 am...snow showers likely. Temperature 7 above. Light winds.

×

10-Day Weather Forecast

Almanac

Astronomy

Jan. 31, 2015 Rise Set
Actual Time
Civil Twilight
Nautical Twilight
Astronomical Twilight
Moon
Length of Visible Light
Length of Day
Tomorrow will be .
, % of the Moon is Illuminated

Today's Extremes

State Highs State Lows

Community

WunderPhotos

Upload Photos

1,792,005 photos uploaded!

WunderBlogs® & News

Nearby

Air Quality

  Air Quality AQ Index Pollutant
Not available.

Snow Depth

Station Depth Elevation

Earthquake Activity

City Distance Mag. Time & Date
Minimum magnitude displayed is 2.5.

Coastal Water Temperatures

Place Temperature

Nearby Weather Stations